sensor_id;sensor_type;location;lat;lon;timestamp;temperature;humidity
20345;DHT22;10330;48.816;9.278;2022-08-11T00:00:39;22.00;82.30
20345;DHT22;10330;48.816;9.278;2022-08-11T00:03:10;22.00;82.10
20345;DHT22;10330;48.816;9.278;2022-08-11T00:05:49;22.10;81.50
20345;DHT22;10330;48.816;9.278;2022-08-11T00:08:21;22.10;81.50
20345;DHT22;10330;48.816;9.278;2022-08-11T00:11:08;22.00;81.70
20345;DHT22;10330;48.816;9.278;2022-08-11T00:13:41;21.90;82.20
20345;DHT22;10330;48.816;9.278;2022-08-11T00:16:20;22.00;81.60
20345;DHT22;10330;48.816;9.278;2022-08-11T00:18:52;22.00;81.70
20345;DHT22;10330;48.816;9.278;2022-08-11T00:21:20;22.10;81.50
20345;DHT22;10330;48.816;9.278;2022-08-11T00:23:54;22.00;82.10
20345;DHT22;10330;48.816;9.278;2022-08-11T00:26:23;22.00;82.00
20345;DHT22;10330;48.816;9.278;2022-08-11T00:28:50;21.90;82.70
20345;DHT22;10330;48.816;9.278;2022-08-11T00:31:27;21.80;83.00
20345;DHT22;10330;48.816;9.278;2022-08-11T00:33:54;21.70;83.50
20345;DHT22;10330;48.816;9.278;2022-08-11T00:36:42;21.70;84.00
20345;DHT22;10330;48.816;9.278;2022-08-11T00:39:11;21.60;84.30
20345;DHT22;10330;48.816;9.278;2022-08-11T00:44:28;21.50;84.40
20345;DHT22;10330;48.816;9.278;2022-08-11T00:47:17;21.40;84.60
20345;DHT22;10330;48.816;9.278;2022-08-11T01:06:56;21.10;89.50
20345;DHT22;10330;48.816;9.278;2022-08-11T01:47:39;20.30;94.10
20345;DHT22;10330;48.816;9.278;2022-08-11T01:54:23;20.20;94.50
20345;DHT22;10330;48.816;9.278;2022-08-11T01:56:45;20.20;95.10
20345;DHT22;10330;48.816;9.278;2022-08-11T02:02:30;20.10;95.70
20345;DHT22;10330;48.816;9.278;2022-08-11T02:20:09;19.70;98.20
20345;DHT22;10330;48.816;9.278;2022-08-11T02:23:02;19.70;98.60
20345;DHT22;10330;48.816;9.278;2022-08-11T02:26:38;19.70;99.00
20345;DHT22;10330;48.816;9.278;2022-08-11T02:29:26;19.60;99.70
20345;DHT22;10330;48.816;9.278;2022-08-11T02:32:25;19.60;99.90
20345;DHT22;10330;48.816;9.278;2022-08-11T02:35:15;19.50;99.90
20345;DHT22;10330;48.816;9.278;2022-08-11T02:38:05;19.50;99.90
20345;DHT22;10330;48.816;9.278;2022-08-11T02:43:14;19.40;99.90
20345;DHT22;10330;48.816;9.278;2022-08-11T02:45:50;19.40;99.90
20345;DHT22;10330;48.816;9.278;2022-08-11T02:51:48;19.30;99.90
20345;DHT22;10330;48.816;9.278;2022-08-11T02:54:24;19.40;99.90
20345;DHT22;10330;48.816;9.278;2022-08-11T02:57:25;19.30;99.90
20345;DHT22;10330;48.816;9.278;2022-08-11T03:02:37;19.20;99.90
20345;DHT22;10330;48.816;9.278;2022-08-11T03:10:53;19.10;99.90
20345;DHT22;10330;48.816;9.278;2022-08-11T03:13:45;19.10;99.90
20345;DHT22;10330;48.816;9.278;2022-08-11T03:16:40;19.10;99.90
20345;DHT22;10330;48.816;9.278;2022-08-11T03:19:33;19.10;99.90
20345;DHT22;10330;48.816;9.278;2022-08-11T03:22:23;19.10;99.90
20345;DHT22;10330;48.816;9.278;2022-08-11T03:30:38;19.00;99.90
20345;DHT22;10330;48.816;9.278;2022-08-11T03:36:12;18.90;99.90
20345;DHT22;10330;48.816;9.278;2022-08-11T03:39:08;18.90;99.90
20345;DHT22;10330;48.816;9.278;2022-08-11T03:41:56;18.90;99.90
20345;DHT22;10330;48.816;9.278;2022-08-11T04:23:43;18.50;99.90
20345;DHT22;10330;48.816;9.278;2022-08-11T04:26:20;18.50;99.90
20345;DHT22;10330;48.816;9.278;2022-08-11T04:31:36;18.50;99.90
20345;DHT22;10330;48.816;9.278;2022-08-11T04:37:10;18.50;99.90
20345;DHT22;10330;48.816;9.278;2022-08-11T04:57:58;18.50;99.90
20345;DHT22;10330;48.816;9.278;2022-08-11T05:13:00;18.70;99.90
20345;DHT22;10330;48.816;9.278;2022-08-11T05:15:54;18.70;99.90
20345;DHT22;10330;48.816;9.278;2022-08-11T05:18:50;18.70;99.90
20345;DHT22;10330;48.816;9.278;2022-08-11T05:21:36;18.70;99.90
20345;DHT22;10330;48.816;9.278;2022-08-11T05:24:44;18.70;99.90
20345;DHT22;10330;48.816;9.278;2022-08-11T05:27:54;18.80;99.90
20345;DHT22;10330;48.816;9.278;2022-08-11T05:30:43;18.90;99.90
20345;DHT22;10330;48.816;9.278;2022-08-11T05:33:37;19.00;99.90
20345;DHT22;10330;48.816;9.278;2022-08-11T05:36:49;19.10;99.90
20345;DHT22;10330;48.816;9.278;2022-08-11T05:39:22;19.10;99.90
20345;DHT22;10330;48.816;9.278;2022-08-11T05:42:08;19.20;99.90
20345;DHT22;10330;48.816;9.278;2022-08-11T05:44:57;19.20;99.90
20345;DHT22;10330;48.816;9.278;2022-08-11T05:47:47;19.20;99.90
20345;DHT22;10330;48.816;9.278;2022-08-11T05:50:32;19.30;99.90
20345;DHT22;10330;48.816;9.278;2022-08-11T05:53:18;19.40;99.90
20345;DHT22;10330;48.816;9.278;2022-08-11T05:56:07;19.50;99.90
20345;DHT22;10330;48.816;9.278;2022-08-11T05:58:50;19.60;99.90
20345;DHT22;10330;48.816;9.278;2022-08-11T06:01:28;19.60;99.90
20345;DHT22;10330;48.816;9.278;2022-08-11T06:04:05;19.70;99.90
20345;DHT22;10330;48.816;9.278;2022-08-11T06:09:26;19.80;99.90
20345;DHT22;10330;48.816;9.278;2022-08-11T06:11:55;19.90;99.90
20345;DHT22;10330;48.816;9.278;2022-08-11T06:14:23;19.90;99.90
20345;DHT22;10330;48.816;9.278;2022-08-11T06:16:54;20.00;99.90
20345;DHT22;10330;48.816;9.278;2022-08-11T06:19:21;20.10;99.90
20345;DHT22;10330;48.816;9.278;2022-08-11T06:21:48;20.20;99.90
20345;DHT22;10330;48.816;9.278;2022-08-11T06:24:17;20.20;99.90
20345;DHT22;10330;48.816;9.278;2022-08-11T06:26:49;20.30;99.90
20345;DHT22;10330;48.816;9.278;2022-08-11T06:29:17;20.30;99.90
20345;DHT22;10330;48.816;9.278;2022-08-11T06:31:57;20.30;99.90
20345;DHT22;10330;48.816;9.278;2022-08-11T06:39:47;20.50;99.90
20345;DHT22;10330;48.816;9.278;2022-08-11T06:47:34;20.80;99.90
20345;DHT22;10330;48.816;9.278;2022-08-11T06:50:01;20.80;99.90
20345;DHT22;10330;48.816;9.278;2022-08-11T06:52:46;20.90;99.90
20345;DHT22;10330;48.816;9.278;2022-08-11T06:55:21;21.00;99.90
20345;DHT22;10330;48.816;9.278;2022-08-11T06:58:16;21.00;99.90
20345;DHT22;10330;48.816;9.278;2022-08-11T07:01:11;21.10;99.90
20345;DHT22;10330;48.816;9.278;2022-08-11T07:03:42;21.20;99.90
20345;DHT22;10330;48.816;9.278;2022-08-11T07:15:13;21.50;99.90
20345;DHT22;10330;48.816;9.278;2022-08-11T07:18:01;21.60;99.90
20345;DHT22;10330;48.816;9.278;2022-08-11T07:20:47;21.80;99.90
20345;DHT22;10330;48.816;9.278;2022-08-11T07:23:35;21.90;99.90
20345;DHT22;10330;48.816;9.278;2022-08-11T07:26:23;21.90;99.90
20345;DHT22;10330;48.816;9.278;2022-08-11T07:29:12;22.00;99.90
20345;DHT22;10330;48.816;9.278;2022-08-11T07:31:45;22.10;99.90
20345;DHT22;10330;48.816;9.278;2022-08-11T07:34:24;22.20;99.90
20345;DHT22;10330;48.816;9.278;2022-08-11T07:36:56;22.20;99.90
20345;DHT22;10330;48.816;9.278;2022-08-11T07:39:30;22.30;99.90
20345;DHT22;10330;48.816;9.278;2022-08-11T07:41:58;22.40;99.90
20345;DHT22;10330;48.816;9.278;2022-08-11T07:44:27;22.50;99.90
20345;DHT22;10330;48.816;9.278;2022-08-11T07:46:56;22.50;99.90
20345;DHT22;10330;48.816;9.278;2022-08-11T07:49:44;22.70;99.90
20345;DHT22;10330;48.816;9.278;2022-08-11T07:52:33;22.80;99.90
20345;DHT22;10330;48.816;9.278;2022-08-11T07:55:03;22.90;99.90
20345;DHT22;10330;48.816;9.278;2022-08-11T07:57:31;23.00;99.90
20345;DHT22;10330;48.816;9.278;2022-08-11T08:00:17;23.00;99.90
20345;DHT22;10330;48.816;9.278;2022-08-11T08:03:04;23.10;99.90
20345;DHT22;10330;48.816;9.278;2022-08-11T08:05:49;23.20;99.90
20345;DHT22;10330;48.816;9.278;2022-08-11T08:08:36;23.30;99.90
20345;DHT22;10330;48.816;9.278;2022-08-11T08:11:22;23.40;99.90
20345;DHT22;10330;48.816;9.278;2022-08-11T08:14:08;23.50;99.90
20345;DHT22;10330;48.816;9.278;2022-08-11T08:16:54;23.60;99.90
20345;DHT22;10330;48.816;9.278;2022-08-11T08:19:47;23.60;99.90
20345;DHT22;10330;48.816;9.278;2022-08-11T08:22:20;23.70;99.90
20345;DHT22;10330;48.816;9.278;2022-08-11T08:24:47;23.70;99.90
20345;DHT22;10330;48.816;9.278;2022-08-11T08:27:14;23.80;99.90
20345;DHT22;10330;48.816;9.278;2022-08-11T08:29:43;23.90;99.90
20345;DHT22;10330;48.816;9.278;2022-08-11T08:32:29;23.90;99.90
20345;DHT22;10330;48.816;9.278;2022-08-11T08:34:56;24.00;99.90
20345;DHT22;10330;48.816;9.278;2022-08-11T08:37:24;24.10;99.90
20345;DHT22;10330;48.816;9.278;2022-08-11T08:39:55;24.20;99.90
20345;DHT22;10330;48.816;9.278;2022-08-11T08:42:31;24.30;99.90
20345;DHT22;10330;48.816;9.278;2022-08-11T08:45:08;24.30;99.90
20345;DHT22;10330;48.816;9.278;2022-08-11T08:47:37;24.40;99.90
20345;DHT22;10330;48.816;9.278;2022-08-11T08:50:15;24.40;99.90
20345;DHT22;10330;48.816;9.278;2022-08-11T08:52:53;24.50;99.90
20345;DHT22;10330;48.816;9.278;2022-08-11T08:55:21;24.60;99.90
20345;DHT22;10330;48.816;9.278;2022-08-11T08:57:49;24.80;99.50
20345;DHT22;10330;48.816;9.278;2022-08-11T09:00:18;24.80;98.10
20345;DHT22;10330;48.816;9.278;2022-08-11T09:02:44;24.80;97.70
20345;DHT22;10330;48.816;9.278;2022-08-11T09:05:11;24.90;97.60
20345;DHT22;10330;48.816;9.278;2022-08-11T09:07:38;24.90;97.00
20345;DHT22;10330;48.816;9.278;2022-08-11T09:10:07;25.00;96.70
20345;DHT22;10330;48.816;9.278;2022-08-11T09:12:33;25.10;95.90
20345;DHT22;10330;48.816;9.278;2022-08-11T09:15:03;25.10;95.60
20345;DHT22;10330;48.816;9.278;2022-08-11T09:17:36;25.10;95.90
20345;DHT22;10330;48.816;9.278;2022-08-11T09:20:07;25.20;95.20
20345;DHT22;10330;48.816;9.278;2022-08-11T09:22:41;25.20;95.00
20345;DHT22;10330;48.816;9.278;2022-08-11T09:25:29;25.30;95.70
20345;DHT22;10330;48.816;9.278;2022-08-11T09:28:22;25.40;95.00
20345;DHT22;10330;48.816;9.278;2022-08-11T09:30:51;25.50;95.20
20345;DHT22;10330;48.816;9.278;2022-08-11T09:33:23;25.50;94.50
20345;DHT22;10330;48.816;9.278;2022-08-11T09:35:51;25.60;94.00
20345;DHT22;10330;48.816;9.278;2022-08-11T09:38:19;25.60;94.10
20345;DHT22;10330;48.816;9.278;2022-08-11T09:41:10;25.70;93.30
20345;DHT22;10330;48.816;9.278;2022-08-11T09:43:45;25.70;93.60
20345;DHT22;10330;48.816;9.278;2022-08-11T09:46:31;25.80;93.00
20345;DHT22;10330;48.816;9.278;2022-08-11T09:49:01;25.80;92.90
20345;DHT22;10330;48.816;9.278;2022-08-11T09:51:31;25.90;92.40
20345;DHT22;10330;48.816;9.278;2022-08-11T09:54:02;25.90;91.40
20345;DHT22;10330;48.816;9.278;2022-08-11T09:56:32;25.90;91.20
20345;DHT22;10330;48.816;9.278;2022-08-11T09:59:20;25.90;91.20
20345;DHT22;10330;48.816;9.278;2022-08-11T10:01:51;25.90;92.00
20345;DHT22;10330;48.816;9.278;2022-08-11T10:04:30;26.00;91.00
20345;DHT22;10330;48.816;9.278;2022-08-11T10:07:02;26.00;91.10
20345;DHT22;10330;48.816;9.278;2022-08-11T10:09:46;26.10;91.60
20345;DHT22;10330;48.816;9.278;2022-08-11T10:12:26;26.20;91.70
20345;DHT22;10330;48.816;9.278;2022-08-11T10:14:56;26.30;90.70
20345;DHT22;10330;48.816;9.278;2022-08-11T10:17:45;26.30;90.60
20345;DHT22;10330;48.816;9.278;2022-08-11T10:20:34;26.30;90.50
20345;DHT22;10330;48.816;9.278;2022-08-11T10:23:02;26.30;90.30
20345;DHT22;10330;48.816;9.278;2022-08-11T10:25:48;26.30;90.30
20345;DHT22;10330;48.816;9.278;2022-08-11T10:28:34;26.40;90.20
20345;DHT22;10330;48.816;9.278;2022-08-11T10:31:03;26.60;90.50
20345;DHT22;10330;48.816;9.278;2022-08-11T10:33:49;26.60;90.70
20345;DHT22;10330;48.816;9.278;2022-08-11T10:36:36;26.80;89.50
20345;DHT22;10330;48.816;9.278;2022-08-11T10:39:20;26.70;88.40
20345;DHT22;10330;48.816;9.278;2022-08-11T10:41:48;26.80;90.20
20345;DHT22;10330;48.816;9.278;2022-08-11T10:44:40;26.80;88.40
20345;DHT22;10330;48.816;9.278;2022-08-11T10:47:09;26.90;88.50
20345;DHT22;10330;48.816;9.278;2022-08-11T10:49:55;27.10;90.10
20345;DHT22;10330;48.816;9.278;2022-08-11T10:52:40;27.20;90.00
20345;DHT22;10330;48.816;9.278;2022-08-11T10:55:26;27.20;88.60
20345;DHT22;10330;48.816;9.278;2022-08-11T10:58:12;27.30;88.20
20345;DHT22;10330;48.816;9.278;2022-08-11T11:00:58;27.30;87.60
20345;DHT22;10330;48.816;9.278;2022-08-11T11:03:27;27.40;85.50
20345;DHT22;10330;48.816;9.278;2022-08-11T11:06:23;27.40;84.80
20345;DHT22;10330;48.816;9.278;2022-08-11T11:08:56;27.60;84.60
20345;DHT22;10330;48.816;9.278;2022-08-11T11:11:25;27.70;84.20
20345;DHT22;10330;48.816;9.278;2022-08-11T11:14:15;27.80;83.20
20345;DHT22;10330;48.816;9.278;2022-08-11T11:17:05;27.80;82.80
20345;DHT22;10330;48.816;9.278;2022-08-11T11:19:53;27.90;82.70
20345;DHT22;10330;48.816;9.278;2022-08-11T11:22:24;28.20;83.50
20345;DHT22;10330;48.816;9.278;2022-08-11T11:36:24;29.00;77.60
20345;DHT22;10330;48.816;9.278;2022-08-11T11:38:54;29.10;77.70
20345;DHT22;10330;48.816;9.278;2022-08-11T11:41:22;29.20;75.90
20345;DHT22;10330;48.816;9.278;2022-08-11T11:43:55;29.40;76.50
20345;DHT22;10330;48.816;9.278;2022-08-11T11:46:27;29.50;75.50
20345;DHT22;10330;48.816;9.278;2022-08-11T11:48:55;29.60;74.50
20345;DHT22;10330;48.816;9.278;2022-08-11T11:51:25;29.80;73.10
20345;DHT22;10330;48.816;9.278;2022-08-11T11:53:52;30.00;73.50
20345;DHT22;10330;48.816;9.278;2022-08-11T11:56:21;30.20;70.30
20345;DHT22;10330;48.816;9.278;2022-08-11T11:58:49;30.40;71.40
20345;DHT22;10330;48.816;9.278;2022-08-11T12:01:36;30.70;69.40
20345;DHT22;10330;48.816;9.278;2022-08-11T12:04:04;31.00;70.70
20345;DHT22;10330;48.816;9.278;2022-08-11T12:06:32;31.40;69.50
20345;DHT22;10330;48.816;9.278;2022-08-11T12:08:58;31.60;67.00
20345;DHT22;10330;48.816;9.278;2022-08-11T12:11:26;31.90;65.70
20345;DHT22;10330;48.816;9.278;2022-08-11T12:17:53;32.60;62.70
20345;DHT22;10330;48.816;9.278;2022-08-11T12:20:21;33.10;62.90
20345;DHT22;10330;48.816;9.278;2022-08-11T12:22:48;33.50;60.20
20345;DHT22;10330;48.816;9.278;2022-08-11T12:29:19;34.40;59.20
20345;DHT22;10330;48.816;9.278;2022-08-11T12:31:47;34.70;59.40
20345;DHT22;10330;48.816;9.278;2022-08-11T12:34:15;34.70;57.00
20345;DHT22;10330;48.816;9.278;2022-08-11T12:36:57;34.80;56.40
20345;DHT22;10330;48.816;9.278;2022-08-11T12:39:27;35.00;55.30
20345;DHT22;10330;48.816;9.278;2022-08-11T12:42:16;34.50;54.20
20345;DHT22;10330;48.816;9.278;2022-08-11T12:45:02;34.70;54.90
20345;DHT22;10330;48.816;9.278;2022-08-11T12:47:51;34.80;54.60
20345;DHT22;10330;48.816;9.278;2022-08-11T12:50:38;34.90;54.30
20345;DHT22;10330;48.816;9.278;2022-08-11T12:53:43;35.20;55.20
20345;DHT22;10330;48.816;9.278;2022-08-11T12:56:11;35.50;52.90
20345;DHT22;10330;48.816;9.278;2022-08-11T12:58:57;35.30;53.30
20345;DHT22;10330;48.816;9.278;2022-08-11T13:01:43;34.90;52.90
20345;DHT22;10330;48.816;9.278;2022-08-11T13:04:29;35.40;52.90
20345;DHT22;10330;48.816;9.278;2022-08-11T13:07:15;35.60;51.70
20345;DHT22;10330;48.816;9.278;2022-08-11T13:09:43;35.60;51.90
20345;DHT22;10330;48.816;9.278;2022-08-11T13:12:10;35.90;51.90
20345;DHT22;10330;48.816;9.278;2022-08-11T13:14:55;36.20;50.90
20345;DHT22;10330;48.816;9.278;2022-08-11T13:17:22;35.70;50.60
20345;DHT22;10330;48.816;9.278;2022-08-11T13:19:49;36.00;50.90
20345;DHT22;10330;48.816;9.278;2022-08-11T13:22:18;35.70;50.50
20345;DHT22;10330;48.816;9.278;2022-08-11T13:24:46;36.00;51.60
20345;DHT22;10330;48.816;9.278;2022-08-11T13:27:15;35.90;50.70
20345;DHT22;10330;48.816;9.278;2022-08-11T13:29:43;36.20;50.90
20345;DHT22;10330;48.816;9.278;2022-08-11T13:32:12;36.50;50.00
20345;DHT22;10330;48.816;9.278;2022-08-11T13:34:41;36.80;50.40
20345;DHT22;10330;48.816;9.278;2022-08-11T13:37:09;36.50;49.50
20345;DHT22;10330;48.816;9.278;2022-08-11T13:39:41;36.90;51.30
20345;DHT22;10330;48.816;9.278;2022-08-11T13:42:14;37.20;50.10
20345;DHT22;10330;48.816;9.278;2022-08-11T13:44:45;37.30;48.80
20345;DHT22;10330;48.816;9.278;2022-08-11T13:47:12;37.20;48.50
20345;DHT22;10330;48.816;9.278;2022-08-11T13:49:41;37.20;49.20
20345;DHT22;10330;48.816;9.278;2022-08-11T13:52:12;37.30;48.10
20345;DHT22;10330;48.816;9.278;2022-08-11T13:54:40;37.10;47.70
20345;DHT22;10330;48.816;9.278;2022-08-11T13:57:09;37.00;47.50
20345;DHT22;10330;48.816;9.278;2022-08-11T13:59:38;37.00;48.50
20345;DHT22;10330;48.816;9.278;2022-08-11T14:02:10;37.20;48.00
20345;DHT22;10330;48.816;9.278;2022-08-11T14:04:44;37.20;47.00
20345;DHT22;10330;48.816;9.278;2022-08-11T14:07:19;37.00;47.50
20345;DHT22;10330;48.816;9.278;2022-08-11T14:09:48;37.00;47.50
20345;DHT22;10330;48.816;9.278;2022-08-11T14:12:24;36.90;48.00
20345;DHT22;10330;48.816;9.278;2022-08-11T14:15:18;37.20;48.20
20345;DHT22;10330;48.816;9.278;2022-08-11T14:17:50;37.40;47.80
20345;DHT22;10330;48.816;9.278;2022-08-11T14:20:18;37.50;47.00
20345;DHT22;10330;48.816;9.278;2022-08-11T14:22:46;37.80;47.00
20345;DHT22;10330;48.816;9.278;2022-08-11T14:25:14;37.70;45.70
20345;DHT22;10330;48.816;9.278;2022-08-11T14:27:45;37.40;45.60
20345;DHT22;10330;48.816;9.278;2022-08-11T14:30:14;37.50;46.20
20345;DHT22;10330;48.816;9.278;2022-08-11T14:33:00;37.30;45.30
20345;DHT22;10330;48.816;9.278;2022-08-11T14:35:27;37.60;46.80
20345;DHT22;10330;48.816;9.278;2022-08-11T14:37:54;37.50;46.00
20345;DHT22;10330;48.816;9.278;2022-08-11T14:40:22;37.60;46.40
20345;DHT22;10330;48.816;9.278;2022-08-11T14:43:07;37.70;46.30
20345;DHT22;10330;48.816;9.278;2022-08-11T14:45:55;37.70;46.50
20345;DHT22;10330;48.816;9.278;2022-08-11T14:48:40;37.80;44.90
20345;DHT22;10330;48.816;9.278;2022-08-11T14:51:07;37.70;44.60
20345;DHT22;10330;48.816;9.278;2022-08-11T14:53:33;37.50;45.20
20345;DHT22;10330;48.816;9.278;2022-08-11T14:56:00;37.60;45.00
20345;DHT22;10330;48.816;9.278;2022-08-11T14:58:45;37.40;44.30
20345;DHT22;10330;48.816;9.278;2022-08-11T15:01:12;37.60;45.00
20345;DHT22;10330;48.816;9.278;2022-08-11T15:03:57;37.60;45.50
20345;DHT22;10330;48.816;9.278;2022-08-11T15:06:25;37.60;44.80
20345;DHT22;10330;48.816;9.278;2022-08-11T15:08:53;37.20;44.70
20345;DHT22;10330;48.816;9.278;2022-08-11T15:11:27;37.00;44.90
20345;DHT22;10330;48.816;9.278;2022-08-11T15:14:13;37.30;44.50
20345;DHT22;10330;48.816;9.278;2022-08-11T15:16:41;37.90;45.00
20345;DHT22;10330;48.816;9.278;2022-08-11T15:19:28;38.10;45.10
20345;DHT22;10330;48.816;9.278;2022-08-11T15:21:55;38.30;43.70
20345;DHT22;10330;48.816;9.278;2022-08-11T15:24:39;37.70;43.30
20345;DHT22;10330;48.816;9.278;2022-08-11T15:27:18;37.80;44.40
20345;DHT22;10330;48.816;9.278;2022-08-11T15:30:04;37.80;43.60
20345;DHT22;10330;48.816;9.278;2022-08-11T15:32:50;37.80;44.10
20345;DHT22;10330;48.816;9.278;2022-08-11T15:35:36;37.90;43.60
20345;DHT22;10330;48.816;9.278;2022-08-11T15:38:22;38.10;44.10
20345;DHT22;10330;48.816;9.278;2022-08-11T15:40:50;38.10;43.60
20345;DHT22;10330;48.816;9.278;2022-08-11T15:43:41;38.30;44.70
20345;DHT22;10330;48.816;9.278;2022-08-11T15:49:30;38.50;43.30
20345;DHT22;10330;48.816;9.278;2022-08-11T15:52:07;38.30;42.90
20345;DHT22;10330;48.816;9.278;2022-08-11T15:54:40;38.10;42.80
20345;DHT22;10330;48.816;9.278;2022-08-11T15:57:08;38.10;42.90
20345;DHT22;10330;48.816;9.278;2022-08-11T15:59:36;38.10;43.30
20345;DHT22;10330;48.816;9.278;2022-08-11T16:02:24;38.20;43.50
20345;DHT22;10330;48.816;9.278;2022-08-11T16:05:13;38.60;43.70
20345;DHT22;10330;48.816;9.278;2022-08-11T16:07:40;38.50;42.90
20345;DHT22;10330;48.816;9.278;2022-08-11T16:10:13;38.10;43.00
20345;DHT22;10330;48.816;9.278;2022-08-11T16:12:49;37.90;42.90
20345;DHT22;10330;48.816;9.278;2022-08-11T16:15:51;37.60;42.70
20345;DHT22;10330;48.816;9.278;2022-08-11T16:18:44;37.50;44.00
20345;DHT22;10330;48.816;9.278;2022-08-11T16:21:16;37.10;43.60
20345;DHT22;10330;48.816;9.278;2022-08-11T16:23:46;37.00;44.30
20345;DHT22;10330;48.816;9.278;2022-08-11T16:26:18;37.20;43.90
20345;DHT22;10330;48.816;9.278;2022-08-11T16:28:45;36.60;43.50
20345;DHT22;10330;48.816;9.278;2022-08-11T16:31:13;36.70;44.70
20345;DHT22;10330;48.816;9.278;2022-08-11T16:33:41;37.10;44.80
20345;DHT22;10330;48.816;9.278;2022-08-11T16:36:09;37.20;44.10
20345;DHT22;10330;48.816;9.278;2022-08-11T16:38:56;37.50;44.90
20345;DHT22;10330;48.816;9.278;2022-08-11T16:41:26;37.70;44.50
20345;DHT22;10330;48.816;9.278;2022-08-11T16:44:14;37.70;43.40
20345;DHT22;10330;48.816;9.278;2022-08-11T16:47:00;37.10;42.60
20345;DHT22;10330;48.816;9.278;2022-08-11T16:49:36;36.60;43.90
20345;DHT22;10330;48.816;9.278;2022-08-11T16:52:05;36.30;44.20
20345;DHT22;10330;48.816;9.278;2022-08-11T16:54:36;36.20;45.60
20345;DHT22;10330;48.816;9.278;2022-08-11T16:57:06;36.20;44.10
20345;DHT22;10330;48.816;9.278;2022-08-11T16:59:53;36.00;45.10
20345;DHT22;10330;48.816;9.278;2022-08-11T17:02:23;36.20;45.10
20345;DHT22;10330;48.816;9.278;2022-08-11T17:05:19;36.40;44.60
20345;DHT22;10330;48.816;9.278;2022-08-11T17:08:08;36.50;44.70
20345;DHT22;10330;48.816;9.278;2022-08-11T17:10:58;36.40;44.30
20345;DHT22;10330;48.816;9.278;2022-08-11T17:13:57;36.40;44.90
20345;DHT22;10330;48.816;9.278;2022-08-11T17:16:33;36.10;44.60
20345;DHT22;10330;48.816;9.278;2022-08-11T17:19:17;36.20;44.80
20345;DHT22;10330;48.816;9.278;2022-08-11T17:21:48;35.80;44.70
20345;DHT22;10330;48.816;9.278;2022-08-11T17:24:36;35.60;44.30
20345;DHT22;10330;48.816;9.278;2022-08-11T17:27:18;35.60;44.50
20345;DHT22;10330;48.816;9.278;2022-08-11T17:29:56;35.70;45.00
20345;DHT22;10330;48.816;9.278;2022-08-11T17:32:29;35.90;45.00
20345;DHT22;10330;48.816;9.278;2022-08-11T17:35:18;36.00;44.80
20345;DHT22;10330;48.816;9.278;2022-08-11T17:38:06;36.40;44.60
20345;DHT22;10330;48.816;9.278;2022-08-11T17:40:36;36.30;44.00
20345;DHT22;10330;48.816;9.278;2022-08-11T17:43:06;35.80;44.60
20345;DHT22;10330;48.816;9.278;2022-08-11T17:45:54;35.30;45.20
20345;DHT22;10330;48.816;9.278;2022-08-11T17:48:32;34.00;45.90
20345;DHT22;10330;48.816;9.278;2022-08-11T17:51:03;33.20;46.80
20345;DHT22;10330;48.816;9.278;2022-08-11T17:53:41;32.50;47.40
20345;DHT22;10330;48.816;9.278;2022-08-11T17:56:30;31.90;48.00
20345;DHT22;10330;48.816;9.278;2022-08-11T17:59:16;31.60;48.90
20345;DHT22;10330;48.816;9.278;2022-08-11T18:02:03;31.20;49.20
20345;DHT22;10330;48.816;9.278;2022-08-11T18:04:51;31.00;49.60
20345;DHT22;10330;48.816;9.278;2022-08-11T18:07:19;30.70;49.80
20345;DHT22;10330;48.816;9.278;2022-08-11T18:10:06;30.60;50.40
20345;DHT22;10330;48.816;9.278;2022-08-11T18:12:53;30.20;50.20
20345;DHT22;10330;48.816;9.278;2022-08-11T18:15:40;30.10;50.80
20345;DHT22;10330;48.816;9.278;2022-08-11T18:18:26;29.90;51.00
20345;DHT22;10330;48.816;9.278;2022-08-11T18:21:14;29.80;51.40
20345;DHT22;10330;48.816;9.278;2022-08-11T18:24:07;29.70;51.80
20345;DHT22;10330;48.816;9.278;2022-08-11T18:26:52;29.60;52.40
20345;DHT22;10330;48.816;9.278;2022-08-11T18:29:40;29.40;52.50
20345;DHT22;10330;48.816;9.278;2022-08-11T18:32:27;29.30;52.30
20345;DHT22;10330;48.816;9.278;2022-08-11T18:35:13;29.10;52.60
20345;DHT22;10330;48.816;9.278;2022-08-11T18:38:00;29.00;53.20
20345;DHT22;10330;48.816;9.278;2022-08-11T18:40:47;28.90;53.40
20345;DHT22;10330;48.816;9.278;2022-08-11T18:43:36;28.70;53.80
20345;DHT22;10330;48.816;9.278;2022-08-11T18:46:23;28.70;54.20
20345;DHT22;10330;48.816;9.278;2022-08-11T18:49:17;28.60;54.50
20345;DHT22;10330;48.816;9.278;2022-08-11T18:52:03;28.40;54.20
20345;DHT22;10330;48.816;9.278;2022-08-11T18:54:51;28.30;55.40
20345;DHT22;10330;48.816;9.278;2022-08-11T18:57:40;28.20;55.50
20345;DHT22;10330;48.816;9.278;2022-08-11T19:00:26;28.10;55.60
20345;DHT22;10330;48.816;9.278;2022-08-11T19:03:13;28.00;55.60
20345;DHT22;10330;48.816;9.278;2022-08-11T19:06:01;27.90;56.30
20345;DHT22;10330;48.816;9.278;2022-08-11T19:08:54;27.80;55.20
20345;DHT22;10330;48.816;9.278;2022-08-11T19:11:40;27.60;55.70
20345;DHT22;10330;48.816;9.278;2022-08-11T19:14:29;27.50;56.90
20345;DHT22;10330;48.816;9.278;2022-08-11T19:17:14;27.50;56.90
20345;DHT22;10330;48.816;9.278;2022-08-11T19:20:02;27.30;56.30
20345;DHT22;10330;48.816;9.278;2022-08-11T19:22:48;27.30;57.00
20345;DHT22;10330;48.816;9.278;2022-08-11T19:25:35;27.20;57.00
20345;DHT22;10330;48.816;9.278;2022-08-11T19:28:21;27.10;56.60
20345;DHT22;10330;48.816;9.278;2022-08-11T19:31:07;27.00;57.10
20345;DHT22;10330;48.816;9.278;2022-08-11T19:33:53;27.00;57.20
20345;DHT22;10330;48.816;9.278;2022-08-11T19:36:40;27.00;56.80
20345;DHT22;10330;48.816;9.278;2022-08-11T19:39:26;26.80;56.60
20345;DHT22;10330;48.816;9.278;2022-08-11T19:42:12;26.80;57.20
20345;DHT22;10330;48.816;9.278;2022-08-11T19:45:02;26.70;57.60
20345;DHT22;10330;48.816;9.278;2022-08-11T19:47:48;26.70;57.40
20345;DHT22;10330;48.816;9.278;2022-08-11T19:50:34;26.60;57.50
20345;DHT22;10330;48.816;9.278;2022-08-11T19:53:20;26.60;57.80
20345;DHT22;10330;48.816;9.278;2022-08-11T19:56:06;26.50;57.60
20345;DHT22;10330;48.816;9.278;2022-08-11T19:58:52;26.40;57.70
20345;DHT22;10330;48.816;9.278;2022-08-11T20:01:39;26.40;58.20
20345;DHT22;10330;48.816;9.278;2022-08-11T20:04:24;26.20;58.00
20345;DHT22;10330;48.816;9.278;2022-08-11T20:07:10;26.10;58.60
20345;DHT22;10330;48.816;9.278;2022-08-11T20:09:57;26.00;59.10
20345;DHT22;10330;48.816;9.278;2022-08-11T20:12:44;26.00;59.30
20345;DHT22;10330;48.816;9.278;2022-08-11T20:15:29;25.90;59.40
20345;DHT22;10330;48.816;9.278;2022-08-11T20:18:14;25.90;59.50
20345;DHT22;10330;48.816;9.278;2022-08-11T20:21:01;25.80;60.00
20345;DHT22;10330;48.816;9.278;2022-08-11T20:23:47;25.80;60.50
20345;DHT22;10330;48.816;9.278;2022-08-11T20:26:34;25.70;60.90